sensor_id;sensor_type;location;lat;lon;timestamp;pressure;altitude;pressure_sealevel;temperature;humidity
17607;BME280;69222;52.242;20.980;2024-02-14T00:00:59;100818.28;;;5.41;76.78
17607;BME280;69222;52.242;20.980;2024-02-14T00:03:27;100831.91;;;5.40;76.15
17607;BME280;69222;52.242;20.980;2024-02-14T00:05:55;100826.00;;;5.43;76.76
17607;BME280;69222;52.242;20.980;2024-02-14T00:08:23;100830.19;;;5.41;76.86
17607;BME280;69222;52.242;20.980;2024-02-14T00:10:52;100835.28;;;5.39;76.47
17607;BME280;69222;52.242;20.980;2024-02-14T00:13:21;100840.31;;;5.36;77.25
17607;BME280;69222;52.242;20.980;2024-02-14T00:15:49;100845.44;;;5.36;77.25
17607;BME280;69222;52.242;20.980;2024-02-14T00:18:17;100839.47;;;5.36;77.19
17607;BME280;69222;52.242;20.980;2024-02-14T00:20:48;100845.38;;;5.33;77.41
17607;BME280;69222;52.242;20.980;2024-02-14T00:23:16;100845.50;;;5.38;77.60
17607;BME280;69222;52.242;20.980;2024-02-14T00:25:43;100849.72;;;5.37;76.91
17607;BME280;69222;52.242;20.980;2024-02-14T00:28:12;100849.84;;;5.42;76.39
17607;BME280;69222;52.242;20.980;2024-02-14T00:30:41;100849.84;;;5.43;77.34
17607;BME280;69222;52.242;20.980;2024-02-14T00:33:09;100849.97;;;5.48;76.75
17607;BME280;69222;52.242;20.980;2024-02-14T00:35:38;100846.63;;;5.52;76.97
17607;BME280;69222;52.242;20.980;2024-02-14T00:38:06;100851.81;;;5.55;76.03
17607;BME280;69222;52.242;20.980;2024-02-14T00:40:34;100856.97;;;5.56;76.43
17607;BME280;69222;52.242;20.980;2024-02-14T00:43:03;100856.06;;;5.54;76.40
17607;BME280;69222;52.242;20.980;2024-02-14T00:45:31;100848.47;;;5.56;76.63
17607;BME280;69222;52.242;20.980;2024-02-14T00:48:01;100850.13;;;5.55;76.20
17607;BME280;69222;52.242;20.980;2024-02-14T00:50:30;100851.88;;;5.58;76.87
17607;BME280;69222;52.242;20.980;2024-02-14T00:53:00;100853.59;;;5.57;77.02
17607;BME280;69222;52.242;20.980;2024-02-14T00:55:28;100855.34;;;5.60;76.79
17607;BME280;69222;52.242;20.980;2024-02-14T00:57:56;100850.28;;;5.63;76.96
17607;BME280;69222;52.242;20.980;2024-02-14T01:00:24;100850.25;;;5.62;76.58
17607;BME280;69222;52.242;20.980;2024-02-14T01:02:52;100849.47;;;5.64;76.59
17607;BME280;69222;52.242;20.980;2024-02-14T01:05:21;100857.16;;;5.64;76.37
17607;BME280;69222;52.242;20.980;2024-02-14T01:07:49;100853.69;;;5.62;76.51
17607;BME280;69222;52.242;20.980;2024-02-14T01:10:17;100862.19;;;5.61;76.38
17607;BME280;69222;52.242;20.980;2024-02-14T01:12:45;100859.56;;;5.58;76.09
17607;BME280;69222;52.242;20.980;2024-02-14T01:15:13;100866.34;;;5.56;76.53
17607;BME280;69222;52.242;20.980;2024-02-14T01:17:41;100855.13;;;5.51;76.13
17607;BME280;69222;52.242;20.980;2024-02-14T01:20:10;100866.16;;;5.48;76.42
17607;BME280;69222;52.242;20.980;2024-02-14T01:22:40;100864.44;;;5.47;76.79
17607;BME280;69222;52.242;20.980;2024-02-14T01:25:08;100866.09;;;5.45;77.12
17607;BME280;69222;52.242;20.980;2024-02-14T01:27:37;100860.91;;;5.42;76.70
17607;BME280;69222;52.242;20.980;2024-02-14T01:30:06;100865.13;;;5.40;76.90
17607;BME280;69222;52.242;20.980;2024-02-14T01:32:34;100859.91;;;5.36;77.09
17607;BME280;69222;52.242;20.980;2024-02-14T01:35:03;100858.91;;;5.29;77.34
17607;BME280;69222;52.242;20.980;2024-02-14T01:37:31;100863.06;;;5.25;77.47
17607;BME280;69222;52.242;20.980;2024-02-14T01:40:00;100858.78;;;5.23;78.14
17607;BME280;69222;52.242;20.980;2024-02-14T01:42:29;100857.84;;;5.19;78.14
17607;BME280;69222;52.242;20.980;2024-02-14T01:44:57;100860.34;;;5.18;77.90
17607;BME280;69222;52.242;20.980;2024-02-14T01:47:26;100856.91;;;5.16;78.17
17607;BME280;69222;52.242;20.980;2024-02-14T01:49:54;100862.81;;;5.13;77.83
17607;BME280;69222;52.242;20.980;2024-02-14T01:52:22;100865.28;;;5.10;77.82
17607;BME280;69222;52.242;20.980;2024-02-14T01:54:50;100872.88;;;5.07;78.04
17607;BME280;69222;52.242;20.980;2024-02-14T01:57:21;100861.63;;;5.00;79.07
17607;BME280;69222;52.242;20.980;2024-02-14T01:59:49;100870.91;;;4.97;78.41
17607;BME280;69222;52.242;20.980;2024-02-14T02:02:19;100870.72;;;4.89;79.50
17607;BME280;69222;52.242;20.980;2024-02-14T02:04:47;100867.97;;;4.80;79.56
17607;BME280;69222;52.242;20.980;2024-02-14T02:07:18;100883.16;;;4.75;80.46
17607;BME280;69222;52.242;20.980;2024-02-14T02:09:46;100880.44;;;4.69;79.83
17607;BME280;69222;52.242;20.980;2024-02-14T02:12:14;100869.09;;;4.58;80.73
17607;BME280;69222;52.242;20.980;2024-02-14T02:14:44;100885.38;;;4.63;80.43
17607;BME280;69222;52.242;20.980;2024-02-14T02:17:12;100886.19;;;4.60;82.29
17607;BME280;69222;52.242;20.980;2024-02-14T02:19:40;100881.03;;;4.59;82.31
17607;BME280;69222;52.242;20.980;2024-02-14T02:22:09;100883.50;;;4.56;81.26
17607;BME280;69222;52.242;20.980;2024-02-14T02:24:38;100883.50;;;4.56;82.88
17607;BME280;69222;52.242;20.980;2024-02-14T02:27:07;100886.88;;;4.55;82.77
17607;BME280;69222;52.242;20.980;2024-02-14T02:29:35;100882.53;;;4.52;82.42
17607;BME280;69222;52.242;20.980;2024-02-14T02:32:05;100886.78;;;4.52;82.03
17607;BME280;69222;52.242;20.980;2024-02-14T02:34:33;100891.03;;;4.51;82.00
17607;BME280;69222;52.242;20.980;2024-02-14T02:37:01;100884.97;;;4.48;82.77
17607;BME280;69222;52.242;20.980;2024-02-14T02:39:33;100884.13;;;4.47;82.05
17607;BME280;69222;52.242;20.980;2024-02-14T02:42:04;100890.91;;;4.47;83.64
17607;BME280;69222;52.242;20.980;2024-02-14T02:44:32;100889.22;;;4.47;82.91
17607;BME280;69222;52.242;20.980;2024-02-14T02:47:00;100891.81;;;4.49;82.71
17607;BME280;69222;52.242;20.980;2024-02-14T02:49:28;100891.91;;;4.52;83.56
17607;BME280;69222;52.242;20.980;2024-02-14T02:51:56;100897.09;;;4.55;82.50
17607;BME280;69222;52.242;20.980;2024-02-14T02:54:24;100895.28;;;4.51;83.03
17607;BME280;69222;52.242;20.980;2024-02-14T02:56:52;100900.28;;;4.48;83.20
17607;BME280;69222;52.242;20.980;2024-02-14T02:59:21;100893.47;;;4.47;82.73
17607;BME280;69222;52.242;20.980;2024-02-14T03:01:50;100893.47;;;4.47;83.02
17607;BME280;69222;52.242;20.980;2024-02-14T03:04:18;100890.00;;;4.45;83.38
17607;BME280;69222;52.242;20.980;2024-02-14T03:06:46;100896.75;;;4.43;83.91
17607;BME280;69222;52.242;20.980;2024-02-14T03:09:14;100898.41;;;4.41;83.57
17607;BME280;69222;52.242;20.980;2024-02-14T03:11:46;100912.00;;;4.40;83.13
17607;BME280;69222;52.242;20.980;2024-02-14T03:14:14;100903.34;;;4.34;84.00
17607;BME280;69222;52.242;20.980;2024-02-14T03:16:43;100909.31;;;4.35;83.91
17607;BME280;69222;52.242;20.980;2024-02-14T03:19:11;100910.06;;;4.31;83.64
17607;BME280;69222;52.242;20.980;2024-02-14T03:21:39;100910.78;;;4.27;82.87
17607;BME280;69222;52.242;20.980;2024-02-14T03:24:07;100920.91;;;4.24;84.49
17607;BME280;69222;52.242;20.980;2024-02-14T03:26:36;100924.16;;;4.20;83.33
17607;BME280;69222;52.242;20.980;2024-02-14T03:29:04;100928.34;;;4.16;84.28
17607;BME280;69222;52.242;20.980;2024-02-14T03:31:33;100924.84;;;4.13;84.70
17607;BME280;69222;52.242;20.980;2024-02-14T03:34:02;100923.09;;;4.11;84.25
17607;BME280;69222;52.242;20.980;2024-02-14T03:36:30;100925.53;;;4.07;85.50
17607;BME280;69222;52.242;20.980;2024-02-14T03:38:59;100926.34;;;4.06;85.80
17607;BME280;69222;52.242;20.980;2024-02-14T03:41:30;100927.97;;;4.04;84.66
17607;BME280;69222;52.242;20.980;2024-02-14T03:43:58;100931.34;;;4.03;85.95
17607;BME280;69222;52.242;20.980;2024-02-14T03:46:28;100927.94;;;4.02;86.16
17607;BME280;69222;52.242;20.980;2024-02-14T03:48:56;100924.34;;;3.96;86.08
17607;BME280;69222;52.242;20.980;2024-02-14T03:51:26;100932.81;;;3.95;85.85
17607;BME280;69222;52.242;20.980;2024-02-14T03:53:54;100926.78;;;3.93;85.58
17607;BME280;69222;52.242;20.980;2024-02-14T03:56:22;100925.00;;;3.90;87.13
17607;BME280;69222;52.242;20.980;2024-02-14T03:58:50;100929.25;;;3.90;87.20
17607;BME280;69222;52.242;20.980;2024-02-14T04:01:18;100938.66;;;3.91;86.52
17607;BME280;69222;52.242;20.980;2024-02-14T04:03:46;100940.38;;;3.92;86.10
17607;BME280;69222;52.242;20.980;2024-02-14T04:06:16;100942.06;;;3.91;86.12
17607;BME280;69222;52.242;20.980;2024-02-14T04:08:46;100936.91;;;3.90;87.51
17607;BME280;69222;52.242;20.980;2024-02-14T04:11:14;100933.47;;;3.87;87.74
17607;BME280;69222;52.242;20.980;2024-02-14T04:13:42;100945.34;;;3.87;87.33
17607;BME280;69222;52.242;20.980;2024-02-14T04:16:10;100945.28;;;3.85;86.37
17607;BME280;69222;52.242;20.980;2024-02-14T04:18:42;100950.28;;;3.82;85.86
17607;BME280;69222;52.242;20.980;2024-02-14T04:21:11;100943.44;;;3.80;86.51
17607;BME280;69222;52.242;20.980;2024-02-14T04:23:39;100950.16;;;3.78;87.40
17607;BME280;69222;52.242;20.980;2024-02-14T04:26:08;100945.81;;;3.75;86.59
17607;BME280;69222;52.242;20.980;2024-02-14T04:28:38;100949.16;;;3.73;87.25
17607;BME280;69222;52.242;20.980;2024-02-14T04:31:07;100947.41;;;3.72;88.15
17607;BME280;69222;52.242;20.980;2024-02-14T04:33:36;100943.88;;;3.68;87.06
17607;BME280;69222;52.242;20.980;2024-02-14T04:36:05;100951.41;;;3.63;87.19
17607;BME280;69222;52.242;20.980;2024-02-14T04:38:33;100947.84;;;3.58;88.09
17607;BME280;69222;52.242;20.980;2024-02-14T04:41:01;100942.66;;;3.55;88.80
17607;BME280;69222;52.242;20.980;2024-02-14T04:43:30;100947.72;;;3.54;88.54
17607;BME280;69222;52.242;20.980;2024-02-14T04:45:58;100960.53;;;3.57;88.51
17607;BME280;69222;52.242;20.980;2024-02-14T04:48:26;100960.63;;;3.60;87.30
17607;BME280;69222;52.242;20.980;2024-02-14T04:50:55;100959.84;;;3.61;87.33
17607;BME280;69222;52.242;20.980;2024-02-14T04:53:23;100961.50;;;3.60;88.32
17607;BME280;69222;52.242;20.980;2024-02-14T04:55:51;100958.91;;;3.59;89.08
17607;BME280;69222;52.242;20.980;2024-02-14T04:58:20;100963.16;;;3.58;87.68
17607;BME280;69222;52.242;20.980;2024-02-14T05:00:49;100969.06;;;3.57;86.89
17607;BME280;69222;52.242;20.980;2024-02-14T05:03:17;100971.63;;;3.57;88.01
17607;BME280;69222;52.242;20.980;2024-02-14T05:05:45;100971.56;;;3.56;87.78
17607;BME280;69222;52.242;20.980;2024-02-14T05:08:13;100971.56;;;3.56;87.22
17607;BME280;69222;52.242;20.980;2024-02-14T05:10:42;100969.00;;;3.56;87.02
17607;BME280;69222;52.242;20.980;2024-02-14T05:13:10;100969.72;;;3.52;87.93
17607;BME280;69222;52.242;20.980;2024-02-14T05:15:39;100974.00;;;3.53;86.79
17607;BME280;69222;52.242;20.980;2024-02-14T05:18:08;100976.53;;;3.53;87.70
17607;BME280;69222;52.242;20.980;2024-02-14T05:20:36;100976.63;;;3.54;86.80
17607;BME280;69222;52.242;20.980;2024-02-14T05:23:05;100974.94;;;3.55;87.39
17607;BME280;69222;52.242;20.980;2024-02-14T05:25:33;100979.31;;;3.59;87.21
17607;BME280;69222;52.242;20.980;2024-02-14T05:28:01;100984.41;;;3.59;88.19
17607;BME280;69222;52.242;20.980;2024-02-14T05:30:29;100980.13;;;3.58;87.27
17607;BME280;69222;52.242;20.980;2024-02-14T05:32:58;100986.91;;;3.57;86.79
17607;BME280;69222;52.242;20.980;2024-02-14T05:35:29;100986.84;;;3.56;87.33
17607;BME280;69222;52.242;20.980;2024-02-14T05:37:57;100985.97;;;3.55;87.01
17607;BME280;69222;52.242;20.980;2024-02-14T05:40:25;100987.69;;;3.56;87.06
17607;BME280;69222;52.242;20.980;2024-02-14T05:42:53;100992.75;;;3.55;86.41
17607;BME280;69222;52.242;20.980;2024-02-14T05:45:22;100991.03;;;3.54;86.23
17607;BME280;69222;52.242;20.980;2024-02-14T05:47:50;100988.41;;;3.52;85.81
17607;BME280;69222;52.242;20.980;2024-02-14T05:50:19;100985.84;;;3.51;86.82
17607;BME280;69222;52.242;20.980;2024-02-14T05:52:48;100988.31;;;3.49;86.64
17607;BME280;69222;52.242;20.980;2024-02-14T05:55:17;100990.88;;;3.49;85.94
17607;BME280;69222;52.242;20.980;2024-02-14T05:57:44;100990.94;;;3.51;86.10
17607;BME280;69222;52.242;20.980;2024-02-14T06:00:13;100998.56;;;3.51;86.02
17607;BME280;69222;52.242;20.980;2024-02-14T06:02:41;101000.31;;;3.52;86.88
17607;BME280;69222;52.242;20.980;2024-02-14T06:05:09;101002.00;;;3.51;86.46
17607;BME280;69222;52.242;20.980;2024-02-14T06:07:37;100997.72;;;3.50;86.27
17607;BME280;69222;52.242;20.980;2024-02-14T06:10:07;101008.81;;;3.52;86.64
17607;BME280;69222;52.242;20.980;2024-02-14T06:12:36;100996.13;;;3.54;85.67
17607;BME280;69222;52.242;20.980;2024-02-14T06:15:06;101005.59;;;3.58;86.33
17607;BME280;69222;52.242;20.980;2024-02-14T06:17:35;101012.44;;;3.59;85.05
17607;BME280;69222;52.242;20.980;2024-02-14T06:20:03;101015.97;;;3.64;86.30
17607;BME280;69222;52.242;20.980;2024-02-14T06:22:33;101017.75;;;3.67;85.34
17607;BME280;69222;52.242;20.980;2024-02-14T06:25:07;101014.47;;;3.69;86.15
17607;BME280;69222;52.242;20.980;2024-02-14T06:27:35;101015.34;;;3.71;84.18
17607;BME280;69222;52.242;20.980;2024-02-14T06:30:04;101016.41;;;3.78;83.90
17607;BME280;69222;52.242;20.980;2024-02-14T06:32:33;101018.31;;;3.83;85.25
17607;BME280;69222;52.242;20.980;2024-02-14T06:35:02;101010.69;;;3.85;83.81
17607;BME280;69222;52.242;20.980;2024-02-14T06:37:30;101007.50;;;3.91;84.47
17607;BME280;69222;52.242;20.980;2024-02-14T06:40:15;101001.56;;;3.92;84.16
17607;BME280;69222;52.242;20.980;2024-02-14T06:42:43;101009.31;;;3.95;83.63
17607;BME280;69222;52.242;20.980;2024-02-14T06:45:11;101017.94;;;4.00;83.71
17607;BME280;69222;52.242;20.980;2024-02-14T06:47:39;101013.06;;;4.06;82.39
17607;BME280;69222;52.242;20.980;2024-02-14T06:50:08;101013.16;;;4.09;83.08
17607;BME280;69222;52.242;20.980;2024-02-14T06:52:37;101013.22;;;4.12;82.44
17607;BME280;69222;52.242;20.980;2024-02-14T06:55:05;101017.53;;;4.13;81.52
17607;BME280;69222;52.242;20.980;2024-02-14T06:57:35;101012.41;;;4.13;82.64
17607;BME280;69222;52.242;20.980;2024-02-14T07:00:04;101022.72;;;4.16;82.47
17607;BME280;69222;52.242;20.980;2024-02-14T07:02:34;101018.53;;;4.20;81.43
17607;BME280;69222;52.242;20.980;2024-02-14T07:05:02;101022.03;;;4.22;81.99
17607;BME280;69222;52.242;20.980;2024-02-14T07:07:30;101028.13;;;4.27;80.67
17607;BME280;69222;52.242;20.980;2024-02-14T07:09:58;101027.34;;;4.29;80.87
17607;BME280;69222;52.242;20.980;2024-02-14T07:12:26;101034.16;;;4.30;81.47
17607;BME280;69222;52.242;20.980;2024-02-14T07:14:57;101027.44;;;4.32;80.17
17607;BME280;69222;52.242;20.980;2024-02-14T07:17:25;101026.59;;;4.32;80.23
17607;BME280;69222;52.242;20.980;2024-02-14T07:19:53;101023.94;;;4.29;79.63
17607;BME280;69222;52.242;20.980;2024-02-14T07:22:21;101029.91;;;4.29;81.38
17607;BME280;69222;52.242;20.980;2024-02-14T07:24:49;101029.88;;;4.28;80.01
17607;BME280;69222;52.242;20.980;2024-02-14T07:27:17;101025.66;;;4.30;79.68
17607;BME280;69222;52.242;20.980;2024-02-14T07:29:45;101029.06;;;4.30;80.10
17607;BME280;69222;52.242;20.980;2024-02-14T07:32:15;101032.44;;;4.29;81.09
17607;BME280;69222;52.242;20.980;2024-02-14T07:34:43;101031.56;;;4.27;81.05
17607;BME280;69222;52.242;20.980;2024-02-14T07:37:11;101022.94;;;4.24;80.85
17607;BME280;69222;52.242;20.980;2024-02-14T07:39:41;101024.78;;;4.28;79.37
17607;BME280;69222;52.242;20.980;2024-02-14T07:42:09;101029.16;;;4.33;80.81
17607;BME280;69222;52.242;20.980;2024-02-14T07:44:37;101032.66;;;4.37;80.70
17607;BME280;69222;52.242;20.980;2024-02-14T07:47:05;101027.63;;;4.39;79.51
17607;BME280;69222;52.242;20.980;2024-02-14T07:49:35;101037.13;;;4.44;79.40
17607;BME280;69222;52.242;20.980;2024-02-14T07:52:03;101036.38;;;4.47;80.38
17607;BME280;69222;52.242;20.980;2024-02-14T07:54:32;101034.81;;;4.52;79.26
17607;BME280;69222;52.242;20.980;2024-02-14T07:56:59;101040.09;;;4.58;78.92
17607;BME280;69222;52.242;20.980;2024-02-14T07:59:27;101028.31;;;4.63;78.03
17607;BME280;69222;52.242;20.980;2024-02-14T08:01:57;101030.13;;;4.67;78.26
17607;BME280;69222;52.242;20.980;2024-02-14T08:04:25;101033.69;;;4.72;79.23
17607;BME280;69222;52.242;20.980;2024-02-14T08:06:55;101033.09;;;4.81;77.88
17607;BME280;69222;52.242;20.980;2024-02-14T08:09:23;101022.19;;;4.87;78.54
17607;BME280;69222;52.242;20.980;2024-02-14T08:11:51;101030.81;;;4.92;78.17
17607;BME280;69222;52.242;20.980;2024-02-14T08:14:20;101024.94;;;4.94;77.47
17607;BME280;69222;52.242;20.980;2024-02-14T08:16:48;101029.41;;;5.01;77.87
17607;BME280;69222;52.242;20.980;2024-02-14T08:19:18;101023.56;;;5.07;76.45
17607;BME280;69222;52.242;20.980;2024-02-14T08:21:47;101031.34;;;5.12;76.64
17607;BME280;69222;52.242;20.980;2024-02-14T08:24:19;101028.00;;;5.14;76.79
17607;BME280;69222;52.242;20.980;2024-02-14T08:26:48;101030.63;;;5.16;76.17
17607;BME280;69222;52.242;20.980;2024-02-14T08:29:16;101024.72;;;5.18;75.43
17607;BME280;69222;52.242;20.980;2024-02-14T08:31:45;101022.31;;;5.23;75.85
17607;BME280;69222;52.242;20.980;2024-02-14T08:34:13;101024.97;;;5.27;76.71
17607;BME280;69222;52.242;20.980;2024-02-14T08:36:42;101031.03;;;5.32;76.06
17607;BME280;69222;52.242;20.980;2024-02-14T08:39:10;101027.63;;;5.32;76.00
17607;BME280;69222;52.242;20.980;2024-02-14T08:41:40;101033.66;;;5.34;76.07
17607;BME280;69222;52.242;20.980;2024-02-14T08:44:10;101026.94;;;5.38;75.95
17607;BME280;69222;52.242;20.980;2024-02-14T08:46:38;101032.09;;;5.41;75.42
17607;BME280;69222;52.242;20.980;2024-02-14T08:49:08;101032.97;;;5.41;75.05
17607;BME280;69222;52.242;20.980;2024-02-14T08:51:38;101032.25;;;5.47;75.07
17607;BME280;69222;52.242;20.980;2024-02-14T08:54:06;101035.75;;;5.50;74.28
17607;BME280;69222;52.242;20.980;2024-02-14T08:56:34;101035.88;;;5.55;74.84
17607;BME280;69222;52.242;20.980;2024-02-14T08:59:04;101030.00;;;5.59;73.87
17607;BME280;69222;52.242;20.980;2024-02-14T09:01:33;101035.28;;;5.65;73.70
17607;BME280;69222;52.242;20.980;2024-02-14T09:04:03;101031.09;;;5.69;73.55
17607;BME280;69222;52.242;20.980;2024-02-14T09:06:31;101033.75;;;5.73;72.76
17607;BME280;69222;52.242;20.980;2024-02-14T09:08:59;101030.50;;;5.79;72.92
17607;BME280;69222;52.242;20.980;2024-02-14T09:11:27;101032.31;;;5.85;73.41
17607;BME280;69222;52.242;20.980;2024-02-14T09:13:56;101037.66;;;5.92;72.70
17607;BME280;69222;52.242;20.980;2024-02-14T09:16:30;101030.91;;;5.96;72.29
17607;BME280;69222;52.242;20.980;2024-02-14T09:18:58;101037.09;;;6.04;71.23
17607;BME280;69222;52.242;20.980;2024-02-14T09:21:27;101030.44;;;6.12;71.11
17607;BME280;69222;52.242;20.980;2024-02-14T09:23:56;101033.16;;;6.20;71.13
17607;BME280;69222;52.242;20.980;2024-02-14T09:26:25;101022.22;;;6.27;70.95
17607;BME280;69222;52.242;20.980;2024-02-14T09:28:53;101026.66;;;6.34;71.28
17607;BME280;69222;52.242;20.980;2024-02-14T09:31:21;101017.41;;;6.41;70.30
17607;BME280;69222;52.242;20.980;2024-02-14T09:33:49;101026.81;;;6.42;69.48
17607;BME280;69222;52.242;20.980;2024-02-14T09:36:17;101015.81;;;6.46;69.27
17607;BME280;69222;52.242;20.980;2024-02-14T09:38:46;101014.94;;;6.45;68.94
17607;BME280;69222;52.242;20.980;2024-02-14T09:41:15;101012.47;;;6.50;68.24
17607;BME280;69222;52.242;20.980;2024-02-14T09:43:49;101015.97;;;6.55;68.14
17607;BME280;69222;52.242;20.980;2024-02-14T09:46:17;101016.88;;;6.57;67.61
17607;BME280;69222;52.242;20.980;2024-02-14T09:48:45;101009.28;;;6.60;66.82
17607;BME280;69222;52.242;20.980;2024-02-14T09:51:15;101008.44;;;6.61;67.18
17607;BME280;69222;52.242;20.980;2024-02-14T09:53:44;101019.69;;;6.69;65.57
17607;BME280;69222;52.242;20.980;2024-02-14T09:56:16;101021.38;;;6.67;66.33
17607;BME280;69222;52.242;20.980;2024-02-14T09:58:49;101012.78;;;6.65;66.18
17607;BME280;69222;52.242;20.980;2024-02-14T10:01:23;101007.72;;;6.68;65.63
17607;BME280;69222;52.242;20.980;2024-02-14T10:03:53;101006.06;;;6.70;65.61
17607;BME280;69222;52.242;20.980;2024-02-14T10:06:23;101010.28;;;6.70;65.10
17607;BME280;69222;52.242;20.980;2024-02-14T10:08:53;101003.53;;;6.73;65.50
17607;BME280;69222;52.242;20.980;2024-02-14T10:11:30;101007.16;;;6.85;66.05
17607;BME280;69222;52.242;20.980;2024-02-14T10:13:59;101006.50;;;6.95;66.43
17607;BME280;69222;52.242;20.980;2024-02-14T10:16:31;101002.44;;;7.06;66.02
17607;BME280;69222;52.242;20.980;2024-02-14T10:18:59;101002.63;;;7.15;64.24
17607;BME280;69222;52.242;20.980;2024-02-14T10:21:29;101003.50;;;7.17;64.28
17607;BME280;69222;52.242;20.980;2024-02-14T10:24:00;100999.34;;;7.24;64.74
17607;BME280;69222;52.242;20.980;2024-02-14T10:26:28;100998.63;;;7.33;63.18
17607;BME280;69222;52.242;20.980;2024-02-14T10:28:57;100990.19;;;7.37;63.11
17607;BME280;69222;52.242;20.980;2024-02-14T10:31:25;100994.59;;;7.45;61.29
17607;BME280;69222;52.242;20.980;2024-02-14T10:33:55;100993.00;;;7.54;62.01
17607;BME280;69222;52.242;20.980;2024-02-14T10:36:24;100999.00;;;7.54;59.30
17607;BME280;69222;52.242;20.980;2024-02-14T10:38:53;100996.41;;;7.53;57.77
17607;BME280;69222;52.242;20.980;2024-02-14T10:41:21;100989.47;;;7.47;58.11
17607;BME280;69222;52.242;20.980;2024-02-14T10:43:49;100990.31;;;7.46;57.62
17607;BME280;69222;52.242;20.980;2024-02-14T10:46:19;100989.47;;;7.44;58.05
17607;BME280;69222;52.242;20.980;2024-02-14T10:48:51;100979.22;;;7.45;58.27
17607;BME280;69222;52.242;20.980;2024-02-14T10:51:23;100986.19;;;7.54;57.93
17607;BME280;69222;52.242;20.980;2024-02-14T10:53:54;100976.81;;;7.58;57.32
17607;BME280;69222;52.242;20.980;2024-02-14T10:56:28;100976.88;;;7.59;57.95
17607;BME280;69222;52.242;20.980;2024-02-14T10:59:00;100979.44;;;7.59;57.14
17607;BME280;69222;52.242;20.980;2024-02-14T11:01:29;100988.78;;;7.57;56.36
17607;BME280;69222;52.242;20.980;2024-02-14T11:04:00;100972.50;;;7.54;56.68
17607;BME280;69222;52.242;20.980;2024-02-14T11:06:28;100976.75;;;7.52;56.34
17607;BME280;69222;52.242;20.980;2024-02-14T11:09:00;100969.06;;;7.53;56.17
17607;BME280;69222;52.242;20.980;2024-02-14T11:11:33;100966.63;;;7.59;56.51
17607;BME280;69222;52.242;20.980;2024-02-14T11:14:05;100973.56;;;7.66;55.12
17607;BME280;69222;52.242;20.980;2024-02-14T11:16:34;100967.59;;;7.69;55.53
17607;BME280;69222;52.242;20.980;2024-02-14T11:19:06;100960.00;;;7.77;55.71
17607;BME280;69222;52.242;20.980;2024-02-14T11:21:36;100956.63;;;7.78;53.58
17607;BME280;69222;52.242;20.980;2024-02-14T11:24:07;100960.16;;;7.86;54.34
17607;BME280;69222;52.242;20.980;2024-02-14T11:26:39;100966.25;;;7.92;53.49
17607;BME280;69222;52.242;20.980;2024-02-14T11:29:07;100957.69;;;7.93;52.77
17607;BME280;69222;52.242;20.980;2024-02-14T11:31:45;100955.13;;;7.92;53.38
17607;BME280;69222;52.242;20.980;2024-02-14T11:34:14;100958.53;;;7.92;51.94
17607;BME280;69222;52.242;20.980;2024-02-14T11:36:43;100960.28;;;7.95;53.34
17607;BME280;69222;52.242;20.980;2024-02-14T11:39:13;100951.75;;;7.96;53.04
17607;BME280;69222;52.242;20.980;2024-02-14T11:41:42;100948.44;;;8.03;53.69
17607;BME280;69222;52.242;20.980;2024-02-14T11:44:10;100945.91;;;8.09;52.57
17607;BME280;69222;52.242;20.980;2024-02-14T11:46:39;100944.34;;;8.19;52.77
17607;BME280;69222;52.242;20.980;2024-02-14T11:49:08;100936.75;;;8.27;52.50
17607;BME280;69222;52.242;20.980;2024-02-14T11:51:37;100946.25;;;8.34;53.06
17607;BME280;69222;52.242;20.980;2024-02-14T11:54:05;100955.72;;;8.38;52.08
17607;BME280;69222;52.242;20.980;2024-02-14T11:56:37;100940.31;;;8.38;51.68
17607;BME280;69222;52.242;20.980;2024-02-14T11:59:07;100942.94;;;8.41;52.39
17607;BME280;69222;52.242;20.980;2024-02-14T12:01:37;100936.94;;;8.42;53.14
17607;BME280;69222;52.242;20.980;2024-02-14T12:04:06;100934.47;;;8.48;52.70
17607;BME280;69222;52.242;20.980;2024-02-14T12:06:36;100937.97;;;8.58;53.24
17607;BME280;69222;52.242;20.980;2024-02-14T12:09:05;100944.97;;;8.69;53.02
17607;BME280;69222;52.242;20.980;2024-02-14T12:11:40;100935.69;;;8.87;52.28
17607;BME280;69222;52.242;20.980;2024-02-14T12:14:10;100939.41;;;9.13;51.04
17607;BME280;69222;52.242;20.980;2024-02-14T12:16:40;100936.22;;;9.45;50.49
17607;BME280;69222;52.242;20.980;2024-02-14T12:19:09;100940.75;;;9.86;49.98
17607;BME280;69222;52.242;20.980;2024-02-14T12:21:43;100928.13;;;10.26;48.64
17607;BME280;69222;52.242;20.980;2024-02-14T12:24:12;100929.09;;;10.58;47.11
17607;BME280;69222;52.242;20.980;2024-02-14T12:26:43;100926.56;;;10.87;46.63
17607;BME280;69222;52.242;20.980;2024-02-14T12:29:11;100924.03;;;11.12;46.22
17607;BME280;69222;52.242;20.980;2024-02-14T12:31:40;100925.72;;;11.31;44.54
17607;BME280;69222;52.242;20.980;2024-02-14T12:34:11;100916.25;;;11.44;44.88
17607;BME280;69222;52.242;20.980;2024-02-14T12:36:40;100928.28;;;11.54;43.29
17607;BME280;69222;52.242;20.980;2024-02-14T12:39:08;100920.53;;;11.59;43.27
17607;BME280;69222;52.242;20.980;2024-02-14T12:41:39;100912.78;;;11.64;42.33
17607;BME280;69222;52.242;20.980;2024-02-14T12:44:09;100911.91;;;11.72;42.70
17607;BME280;69222;52.242;20.980;2024-02-14T12:46:37;100910.16;;;11.74;41.89
17607;BME280;69222;52.242;20.980;2024-02-14T12:49:05;100917.06;;;11.69;40.88
17607;BME280;69222;52.242;20.980;2024-02-14T12:51:36;100917.09;;;11.65;41.82
17607;BME280;69222;52.242;20.980;2024-02-14T12:54:05;100917.97;;;11.60;41.79
17607;BME280;69222;52.242;20.980;2024-02-14T12:56:34;100918.78;;;11.59;42.32
17607;BME280;69222;52.242;20.980;2024-02-14T12:59:02;100915.34;;;11.70;42.66